createdAt,value
2022-07-29T00:00:35.017Z,14.01
2022-07-29T00:03:02.530Z,13.87
2022-07-29T00:05:30.264Z,13.86
2022-07-29T00:07:57.770Z,13.82
2022-07-29T00:10:25.424Z,13.90
2022-07-29T00:12:52.871Z,13.88
2022-07-29T00:15:20.922Z,13.99
2022-07-29T00:17:49.740Z,13.97
2022-07-29T00:20:17.231Z,14.14
2022-07-29T00:22:44.729Z,14.31
2022-07-29T00:25:13.857Z,14.32
2022-07-29T00:27:41.560Z,14.31
2022-07-29T00:30:09.892Z,14.16
2022-07-29T00:32:37.399Z,14.05
2022-07-29T00:35:25.130Z,13.94
2022-07-29T00:37:53.063Z,14.03
2022-07-29T00:40:23.439Z,14.13
2022-07-29T00:42:52.330Z,14.15
2022-07-29T00:45:21.108Z,14.12
2022-07-29T00:47:48.704Z,14.00
2022-07-29T00:50:17.787Z,13.91
2022-07-29T00:52:45.566Z,13.84
2022-07-29T00:55:15.802Z,13.79
2022-07-29T00:57:44.248Z,13.73
2022-07-29T01:00:14.288Z,13.59
2022-07-29T01:02:41.781Z,13.68
2022-07-29T01:05:09.777Z,13.82
2022-07-29T01:07:39.373Z,13.75
2022-07-29T01:10:09.824Z,13.79
2022-07-29T01:12:39.251Z,13.78
2022-07-29T01:15:09.456Z,13.96
2022-07-29T01:17:53.153Z,13.94
2022-07-29T01:20:31.729Z,13.80
2022-07-29T01:23:37.321Z,13.86
2022-07-29T01:26:43.432Z,13.70
2022-07-29T01:29:18.763Z,13.57
2022-07-29T01:31:59.578Z,13.50
2022-07-29T01:34:34.420Z,13.42
2022-07-29T01:37:10.171Z,13.34
2022-07-29T01:39:40.367Z,13.26
2022-07-29T01:42:14.577Z,13.17
2022-07-29T01:44:50.276Z,13.10
2022-07-29T01:47:22.614Z,13.14
2022-07-29T01:49:54.729Z,13.17
2022-07-29T01:52:25.782Z,13.16
2022-07-29T01:54:56.984Z,13.16
2022-07-29T01:57:29.513Z,13.13
2022-07-29T02:00:00.330Z,13.40
2022-07-29T02:02:29.824Z,13.53
2022-07-29T02:04:59.549Z,13.47
2022-07-29T02:07:30.164Z,13.30
2022-07-29T02:10:00.035Z,13.19
2022-07-29T02:12:29.710Z,13.09
2022-07-29T02:15:01.427Z,13.04
2022-07-29T02:17:42.809Z,12.87
2022-07-29T02:20:11.841Z,12.91
2022-07-29T02:22:40.844Z,12.85
2022-07-29T02:25:13.774Z,12.78
2022-07-29T02:27:42.674Z,12.74
2022-07-29T02:30:13.222Z,12.87
2022-07-29T02:32:43.494Z,13.08
2022-07-29T02:35:12.412Z,12.99
2022-07-29T02:37:41.480Z,12.78
2022-07-29T02:40:13.176Z,12.73
2022-07-29T02:42:44.087Z,12.68
2022-07-29T02:45:13.234Z,12.69
2022-07-29T02:47:44.621Z,12.54
2022-07-29T02:50:16.069Z,12.60
2022-07-29T02:52:46.197Z,12.32
2022-07-29T02:55:20.005Z,12.36
2022-07-29T02:57:54.887Z,12.37
2022-07-29T03:00:28.638Z,12.17
2022-07-29T03:02:59.924Z,12.21
2022-07-29T03:05:27.937Z,12.23
2022-07-29T03:07:59.036Z,12.28
2022-07-29T03:10:28.172Z,12.26
2022-07-29T03:12:57.162Z,12.31
2022-07-29T03:15:26.724Z,12.09
2022-07-29T03:17:54.862Z,11.72
2022-07-29T03:20:22.708Z,11.62
2022-07-29T03:22:50.458Z,11.45
2022-07-29T03:25:21.253Z,11.65
2022-07-29T03:27:49.457Z,11.44
2022-07-29T03:30:18.186Z,11.51
2022-07-29T03:32:52.614Z,11.63
2022-07-29T03:35:21.254Z,11.63
2022-07-29T03:37:48.865Z,11.72
2022-07-29T03:40:21.933Z,11.66
2022-07-29T03:42:54.133Z,11.87
2022-07-29T03:45:22.609Z,11.88
2022-07-29T03:48:00.926Z,11.75
2022-07-29T03:50:30.576Z,11.72
2022-07-29T03:52:58.529Z,11.61
2022-07-29T03:55:26.940Z,11.88
2022-07-29T03:57:54.840Z,11.81
2022-07-29T04:00:23.553Z,11.77
2022-07-29T04:02:52.451Z,11.71
2022-07-29T04:05:20.671Z,11.87
2022-07-29T04:07:49.605Z,11.80
2022-07-29T04:10:29.370Z,11.72
2022-07-29T04:12:58.950Z,11.76
2022-07-29T04:15:26.730Z,11.85
2022-07-29T04:18:00.798Z,11.90
2022-07-29T04:20:28.364Z,12.03
2022-07-29T04:22:56.092Z,12.20
2022-07-29T04:25:23.933Z,12.28
2022-07-29T04:28:03.933Z,12.27
2022-07-29T04:30:32.598Z,12.30
2022-07-29T04:33:01.675Z,12.36
2022-07-29T04:35:29.157Z,12.60
2022-07-29T04:37:56.730Z,12.64
2022-07-29T04:40:24.263Z,12.80
2022-07-29T04:42:51.741Z,12.85
2022-07-29T04:45:22.672Z,12.88
2022-07-29T04:47:50.335Z,13.09
2022-07-29T04:50:19.319Z,13.20
2022-07-29T04:52:47.020Z,13.28
2022-07-29T04:55:14.477Z,13.32
2022-07-29T04:57:41.943Z,13.08
2022-07-29T05:00:10.924Z,13.33
2022-07-29T05:02:38.456Z,13.30
2022-07-29T05:05:06.538Z,13.23
2022-07-29T05:07:35.457Z,13.24
2022-07-29T05:10:02.924Z,13.11
2022-07-29T05:12:30.448Z,13.10
2022-07-29T05:14:57.898Z,13.09
2022-07-29T05:17:25.369Z,13.05
2022-07-29T05:19:52.967Z,13.24
2022-07-29T05:22:20.603Z,13.06
2022-07-29T05:24:49.525Z,12.83
2022-07-29T05:27:17.116Z,12.68
2022-07-29T05:29:45.934Z,12.76
2022-07-29T05:32:14.151Z,12.87
2022-07-29T05:34:51.394Z,12.86
2022-07-29T05:37:19.397Z,12.70
2022-07-29T05:39:50.580Z,12.99
2022-07-29T05:42:26.162Z,12.99
2022-07-29T05:44:53.800Z,12.92
2022-07-29T05:47:21.393Z,13.06
2022-07-29T05:49:49.195Z,13.01
2022-07-29T05:52:16.694Z,12.85
2022-07-29T05:54:44.620Z,12.99
2022-07-29T05:57:17.632Z,13.20
2022-07-29T05:59:46.444Z,13.39
2022-07-29T06:02:14.034Z,13.39
2022-07-29T06:04:41.580Z,13.35
2022-07-29T06:07:09.108Z,13.35
2022-07-29T06:09:36.824Z,13.35
2022-07-29T06:12:04.873Z,13.39
2022-07-29T06:14:33.483Z,13.46
2022-07-29T06:17:02.482Z,13.45
2022-07-29T06:19:30.053Z,13.44
2022-07-29T06:21:57.491Z,13.58
2022-07-29T06:24:24.962Z,13.52
2022-07-29T06:26:52.390Z,13.56
2022-07-29T06:29:19.893Z,13.53
2022-07-29T06:31:47.355Z,13.55
2022-07-29T06:34:16.676Z,13.66
2022-07-29T06:36:45.288Z,13.70
2022-07-29T06:39:13.933Z,13.36
2022-07-29T06:41:41.553Z,13.40
2022-07-29T06:44:09.028Z,13.54
2022-07-29T06:46:37.319Z,13.40
2022-07-29T06:49:05.741Z,13.24
2022-07-29T06:51:34.799Z,12.87
2022-07-29T06:54:12.871Z,12.77
2022-07-29T06:56:42.529Z,12.95
2022-07-29T06:59:11.570Z,13.01
2022-07-29T07:01:40.742Z,13.08
2022-07-29T07:04:09.495Z,13.20
2022-07-29T07:06:38.658Z,13.27
2022-07-29T07:09:06.751Z,13.29
2022-07-29T07:11:34.752Z,13.28
2022-07-29T07:14:03.729Z,13.47
2022-07-29T07:16:42.042Z,13.62
2022-07-29T07:19:09.570Z,13.97
2022-07-29T07:21:38.419Z,14.31
2022-07-29T07:24:06.919Z,14.51
2022-07-29T07:26:34.379Z,14.57
2022-07-29T07:29:02.294Z,14.98
2022-07-29T07:31:29.863Z,15.34
2022-07-29T07:33:57.369Z,15.43
2022-07-29T07:36:25.414Z,15.30
2022-07-29T07:38:54.220Z,15.22
2022-07-29T07:41:21.952Z,15.31
2022-07-29T07:43:49.769Z,15.30
2022-07-29T07:46:17.756Z,15.85
2022-07-29T07:48:45.486Z,15.80
2022-07-29T07:51:13.064Z,16.15
2022-07-29T07:53:40.584Z,16.07
2022-07-29T07:56:11.501Z,16.57
2022-07-29T07:58:39.933Z,16.45
2022-07-29T08:01:07.703Z,16.59
2022-07-29T08:03:35.353Z,16.85
2022-07-29T08:06:02.824Z,16.94
2022-07-29T08:08:30.506Z,17.19
2022-07-29T08:10:57.947Z,17.64
2022-07-29T08:13:29.716Z,17.85
2022-07-29T08:16:01.516Z,17.46
2022-07-29T08:18:30.417Z,17.97
2022-07-29T08:20:58.374Z,17.78
2022-07-29T08:23:31.502Z,17.74
2022-07-29T08:26:13.410Z,18.36
2022-07-29T08:28:46.450Z,18.36
2022-07-29T08:31:14.693Z,17.67
2022-07-29T08:33:42.537Z,18.08
2022-07-29T08:36:10.823Z,18.19
2022-07-29T08:38:38.322Z,18.12
2022-07-29T08:41:06.044Z,17.60
2022-07-29T08:43:36.021Z,17.94
2022-07-29T08:46:04.930Z,18.17
2022-07-29T08:48:33.221Z,18.50
2022-07-29T08:51:02.482Z,19.12
2022-07-29T08:53:32.523Z,19.11
2022-07-29T08:56:01.159Z,19.17
2022-07-29T08:58:33.105Z,19.10
2022-07-29T09:01:07.759Z,19.18
2022-07-29T09:03:41.956Z,19.56
2022-07-29T09:06:09.699Z,19.47
2022-07-29T09:08:37.153Z,19.50
2022-07-29T09:11:05.614Z,19.77
2022-07-29T09:13:33.333Z,19.47
2022-07-29T09:16:04.488Z,19.41
2022-07-29T09:18:40.571Z,19.81
2022-07-29T09:21:28.295Z,19.65
2022-07-29T09:24:03.327Z,19.39
2022-07-29T09:26:31.608Z,19.55
2022-07-29T09:28:59.967Z,19.38
2022-07-29T09:31:36.317Z,19.92
2022-07-29T09:34:06.438Z,20.00
2022-07-29T09:36:40.769Z,20.30
2022-07-29T09:39:08.326Z,20.28
2022-07-29T09:41:50.579Z,20.13
2022-07-29T09:44:18.194Z,20.41
2022-07-29T09:47:00.315Z,20.58
2022-07-29T09:49:29.317Z,20.41
2022-07-29T09:52:06.585Z,20.43
2022-07-29T09:54:37.691Z,20.30
2022-07-29T09:57:07.370Z,20.36
2022-07-29T09:59:35.299Z,20.88
2022-07-29T10:02:02.802Z,21.06
2022-07-29T10:04:41.972Z,20.51
2022-07-29T10:07:09.833Z,20.81
2022-07-29T10:09:37.693Z,21.20
2022-07-29T10:12:07.417Z,20.98
2022-07-29T10:14:35.506Z,21.08
2022-07-29T10:17:03.898Z,21.06
2022-07-29T10:19:32.551Z,21.08
2022-07-29T10:22:03.345Z,21.26
2022-07-29T10:24:32.977Z,21.44
2022-07-29T10:27:01.897Z,21.64
2022-07-29T10:29:32.168Z,21.56
2022-07-29T10:32:19.072Z,21.48
2022-07-29T10:35:02.018Z,21.22
2022-07-29T10:37:39.468Z,21.14
2022-07-29T10:40:45.220Z,21.08
2022-07-29T10:43:20.186Z,21.23
2022-07-29T10:48:39.281Z,21.30
2022-07-29T10:51:09.305Z,21.52
2022-07-29T10:53:52.529Z,21.59
2022-07-29T10:56:28.970Z,21.82
2022-07-29T10:59:36.222Z,22.08
2022-07-29T11:02:35.368Z,21.97
2022-07-29T11:05:02.078Z,21.99
2022-07-29T11:07:41.611Z,22.23
2022-07-29T11:10:31.016Z,22.14
2022-07-29T11:12:59.399Z,21.96
2022-07-29T11:15:28.540Z,22.06
2022-07-29T11:18:15.194Z,22.15
2022-07-29T11:20:46.808Z,22.20
2022-07-29T11:23:27.438Z,21.96
2022-07-29T11:26:21.022Z,21.36
2022-07-29T11:28:53.990Z,21.90
2022-07-29T11:31:35.608Z,21.47
2022-07-29T11:34:28.247Z,21.82
2022-07-29T11:37:28.081Z,21.82
2022-07-29T11:40:14.795Z,21.78
2022-07-29T11:42:51.906Z,21.45
2022-07-29T11:45:44.412Z,21.39
2022-07-29T11:51:12.307Z,21.94
2022-07-29T11:53:40.843Z,21.85
2022-07-29T11:56:11.054Z,21.95
2022-07-29T11:58:46.628Z,22.02
2022-07-29T12:01:16.047Z,22.17
2022-07-29T12:03:43.680Z,22.00
2022-07-29T12:06:18.287Z,22.14
2022-07-29T12:07:02.107Z,21.62
2022-07-29T12:08:48.609Z,22.51
2022-07-29T12:11:21.164Z,21.99
2022-07-29T12:13:51.706Z,22.31
2022-07-29T12:16:25.798Z,21.78
2022-07-29T12:18:58.256Z,21.27
2022-07-29T12:21:26.722Z,21.53
2022-07-29T12:24:01.749Z,22.32
2022-07-29T12:26:32.461Z,22.33
2022-07-29T12:29:03.826Z,22.06
2022-07-29T12:31:44.078Z,22.54
2022-07-29T12:34:13.231Z,22.62
2022-07-29T12:36:41.282Z,23.22
2022-07-29T12:39:09.941Z,22.89
2022-07-29T12:41:37.863Z,22.21
2022-07-29T12:44:06.740Z,22.21
2022-07-29T12:46:34.390Z,22.34
2022-07-29T12:49:04.051Z,22.54
2022-07-29T12:51:33.182Z,22.24
2022-07-29T12:54:06.272Z,22.79
2022-07-29T12:56:42.673Z,22.50
2022-07-29T12:59:16.943Z,22.48
2022-07-29T13:01:44.735Z,22.75
2022-07-29T13:04:12.277Z,22.86
2022-07-29T13:06:42.647Z,22.73
2022-07-29T13:09:15.477Z,22.71
2022-07-29T13:11:48.397Z,22.86
2022-07-29T13:14:33.075Z,22.86
2022-07-29T13:17:06.634Z,22.84
2022-07-29T13:19:41.145Z,22.86
2022-07-29T13:22:09.131Z,22.81
2022-07-29T13:24:47.442Z,22.86
2022-07-29T13:27:15.710Z,22.98
2022-07-29T13:29:44.672Z,23.28
2022-07-29T13:32:13.705Z,23.46
2022-07-29T13:34:41.724Z,23.06
2022-07-29T13:37:09.259Z,23.41
2022-07-29T13:39:38.111Z,23.49
2022-07-29T13:42:10.656Z,23.01
2022-07-29T13:44:38.968Z,22.71
2022-07-29T13:47:07.975Z,23.60
2022-07-29T13:49:35.482Z,23.01
2022-07-29T13:52:02.986Z,23.19
2022-07-29T13:54:30.542Z,23.30
2022-07-29T13:56:58.570Z,23.39
2022-07-29T13:59:26.002Z,23.60
2022-07-29T14:01:53.445Z,23.78
2022-07-29T14:04:22.471Z,23.30
2022-07-29T14:06:49.981Z,23.69
2022-07-29T14:09:17.828Z,23.45
2022-07-29T14:11:46.631Z,24.12
2022-07-29T14:14:14.096Z,24.04
2022-07-29T14:16:44.549Z,23.02
2022-07-29T14:19:18.053Z,24.03
2022-07-29T14:21:46.848Z,23.90
2022-07-29T14:24:21.457Z,24.00
2022-07-29T14:26:49.355Z,24.83
2022-07-29T14:29:16.868Z,24.30
2022-07-29T14:31:44.711Z,24.52
2022-07-29T14:34:12.251Z,24.69
2022-07-29T14:36:39.740Z,24.89
2022-07-29T14:39:08.838Z,24.45
2022-07-29T14:41:36.305Z,24.17
2022-07-29T14:44:04.206Z,23.68
2022-07-29T14:46:31.767Z,23.93
2022-07-29T14:48:59.353Z,24.28
2022-07-29T14:51:32.378Z,24.44
2022-07-29T14:54:00.122Z,24.86
2022-07-29T14:56:46.778Z,24.61
2022-07-29T14:59:14.660Z,24.61
2022-07-29T15:01:42.142Z,24.91
2022-07-29T15:04:09.594Z,24.60
2022-07-29T15:06:37.242Z,24.54
2022-07-29T15:09:04.893Z,24.22
2022-07-29T15:11:38.592Z,23.77
2022-07-29T15:14:06.507Z,24.09
2022-07-29T15:16:34.309Z,23.90
2022-07-29T15:19:02.676Z,23.54
2022-07-29T15:21:30.136Z,22.73
2022-07-29T15:23:57.589Z,23.10
2022-07-29T15:26:25.372Z,22.77
2022-07-29T15:28:54.198Z,22.56
2022-07-29T15:31:21.808Z,22.07
2022-07-29T15:33:49.489Z,21.80
2022-07-29T15:36:42.207Z,21.88
2022-07-29T15:39:04.547Z,22.38
2022-07-29T15:41:32.010Z,22.22
2022-07-29T15:44:00.846Z,22.66
2022-07-29T15:46:45.840Z,22.23
2022-07-29T15:49:13.299Z,22.47
2022-07-29T15:51:40.769Z,22.61
2022-07-29T15:54:08.896Z,21.91
2022-07-29T15:56:36.440Z,21.87
2022-07-29T15:59:05.239Z,22.05
2022-07-29T16:01:32.685Z,22.63
2022-07-29T16:04:00.186Z,22.94
2022-07-29T16:06:27.871Z,23.54
2022-07-29T16:08:55.734Z,23.97
2022-07-29T16:11:23.268Z,23.78
2022-07-29T16:13:50.771Z,23.80
2022-07-29T16:16:20.189Z,22.99
2022-07-29T16:18:48.161Z,22.64
2022-07-29T16:21:15.668Z,22.40
2022-07-29T16:23:43.465Z,22.36
2022-07-29T16:26:10.927Z,22.42
2022-07-29T16:28:38.388Z,22.62
2022-07-29T16:31:05.859Z,23.06
2022-07-29T16:33:54.637Z,23.33
2022-07-29T16:36:22.985Z,23.07
2022-07-29T16:38:51.046Z,23.33
2022-07-29T16:41:18.634Z,23.86
2022-07-29T16:43:46.202Z,23.75
2022-07-29T16:46:15.658Z,23.36
2022-07-29T16:48:48.952Z,23.73
2022-07-29T16:51:16.554Z,24.04
2022-07-29T16:53:45.784Z,23.03
2022-07-29T16:56:17.228Z,22.61
2022-07-29T16:58:44.792Z,22.78
2022-07-29T17:01:12.610Z,22.70
2022-07-29T17:04:00.889Z,22.93
2022-07-29T17:06:29.874Z,22.59
2022-07-29T17:08:57.480Z,23.07
2022-07-29T17:11:53.221Z,23.08
2022-07-29T17:14:12.998Z,23.20
2022-07-29T17:16:40.503Z,22.67
2022-07-29T17:19:08.003Z,21.85
2022-07-29T17:21:36.820Z,22.06
2022-07-29T17:24:16.492Z,22.16
2022-07-29T17:26:44.460Z,22.04
2022-07-29T17:29:12.574Z,22.43
2022-07-29T17:31:40.135Z,22.96
2022-07-29T17:34:08.650Z,23.41
2022-07-29T17:36:37.504Z,23.18
2022-07-29T17:39:07.187Z,23.03
2022-07-29T17:41:35.304Z,22.97
2022-07-29T17:44:02.734Z,22.39
2022-07-29T17:46:30.609Z,22.15
2022-07-29T17:48:58.688Z,21.95
2022-07-29T17:51:27.345Z,22.26
2022-07-29T17:53:56.219Z,22.15
2022-07-29T17:56:23.678Z,22.14
2022-07-29T17:58:51.168Z,21.72
2022-07-29T18:01:19.000Z,21.88
2022-07-29T18:03:46.867Z,21.29
2022-07-29T18:06:14.368Z,21.17
2022-07-29T18:08:41.879Z,20.79
2022-07-29T18:11:14.930Z,20.47
2022-07-29T18:13:43.178Z,20.41
2022-07-29T18:16:11.632Z,20.41
2022-07-29T18:18:39.538Z,20.35
2022-07-29T18:21:07.233Z,20.39
2022-07-29T18:23:34.915Z,20.18
2022-07-29T18:26:02.374Z,20.08
2022-07-29T18:28:32.580Z,20.15
2022-07-29T18:31:00.432Z,20.03
2022-07-29T18:33:28.730Z,20.08
2022-07-29T18:36:10.846Z,19.78
2022-07-29T18:38:39.347Z,19.73
2022-07-29T18:41:06.796Z,19.68
2022-07-29T18:43:35.649Z,19.57
2022-07-29T18:46:05.229Z,19.37
2022-07-29T18:48:33.066Z,19.30
2022-07-29T18:51:00.670Z,19.16
2022-07-29T18:53:28.147Z,19.11
2022-07-29T18:56:00.183Z,18.96
2022-07-29T18:58:27.988Z,18.83
2022-07-29T19:00:56.833Z,18.78
2022-07-29T19:03:24.280Z,18.75
2022-07-29T19:05:52.458Z,18.68
2022-07-29T19:08:19.928Z,18.58
2022-07-29T19:10:47.467Z,18.52
2022-07-29T19:13:15.029Z,18.32
2022-07-29T19:15:42.565Z,18.37
2022-07-29T19:18:13.150Z,18.38
2022-07-29T19:20:41.950Z,18.27
2022-07-29T19:23:09.681Z,18.32
2022-07-29T19:25:37.361Z,18.35
2022-07-29T19:28:20.882Z,18.35
2022-07-29T19:30:48.420Z,18.39
2022-07-29T19:33:18.766Z,18.38
2022-07-29T19:35:48.386Z,18.38
2022-07-29T19:38:18.645Z,18.24
2022-07-29T19:40:46.195Z,18.20
2022-07-29T19:43:50.526Z,18.24
2022-07-29T19:46:01.426Z,18.17
2022-07-29T19:48:30.363Z,18.25
2022-07-29T19:50:57.901Z,18.09
2022-07-29T19:53:25.369Z,18.00
2022-07-29T19:55:53.125Z,17.95
2022-07-29T19:58:22.448Z,17.87
2022-07-29T20:00:50.379Z,17.85
2022-07-29T20:03:17.903Z,17.77
2022-07-29T20:05:48.005Z,17.64
2022-07-29T20:08:15.881Z,17.59
2022-07-29T20:10:43.318Z,17.57
2022-07-29T20:13:10.868Z,17.51
2022-07-29T20:15:38.492Z,17.45
2022-07-29T20:18:06.232Z,17.35
2022-07-29T20:20:34.244Z,17.31
2022-07-29T20:23:03.615Z,17.22
2022-07-29T20:25:31.262Z,17.14
2022-07-29T20:27:58.938Z,17.18
2022-07-29T20:30:26.688Z,17.15
2022-07-29T20:32:55.134Z,17.11
2022-07-29T20:35:23.139Z,17.05
2022-07-29T20:37:55.619Z,16.97
2022-07-29T20:40:26.170Z,16.99
2022-07-29T20:42:53.725Z,17.06
2022-07-29T20:45:21.744Z,16.96
2022-07-29T20:47:50.564Z,16.82
2022-07-29T20:50:18.305Z,16.67
2022-07-29T20:52:45.755Z,16.59
2022-07-29T20:55:13.262Z,16.51
2022-07-29T20:57:42.917Z,16.48
2022-07-29T21:00:11.767Z,16.39
2022-07-29T21:02:39.321Z,16.33
2022-07-29T21:05:07.438Z,16.26
2022-07-29T21:07:34.900Z,16.19
2022-07-29T21:10:02.454Z,16.10
2022-07-29T21:12:30.390Z,15.93
2022-07-29T21:14:59.189Z,15.77
2022-07-29T21:17:26.640Z,15.78
2022-07-29T21:19:55.200Z,15.74
2022-07-29T21:22:22.656Z,15.60
2022-07-29T21:24:50.172Z,15.47
2022-07-29T21:27:38.335Z,15.37
2022-07-29T21:30:09.291Z,15.38
2022-07-29T21:32:36.885Z,15.31
2022-07-29T21:35:14.545Z,15.33
2022-07-29T21:37:52.549Z,15.25
2022-07-29T21:40:20.068Z,15.29
2022-07-29T21:42:47.537Z,15.19
2022-07-29T21:45:18.648Z,15.10
2022-07-29T21:47:46.127Z,15.03
2022-07-29T21:50:13.591Z,14.99
2022-07-29T21:52:41.042Z,14.93
2022-07-29T21:55:10.667Z,14.89
2022-07-29T21:57:39.196Z,14.89
2022-07-29T22:00:10.270Z,14.86
2022-07-29T22:02:39.035Z,14.78
2022-07-29T22:05:06.845Z,14.81
2022-07-29T22:07:56.298Z,14.68
2022-07-29T22:10:21.893Z,14.55
2022-07-29T22:12:51.797Z,14.37
2022-07-29T22:15:19.317Z,14.36
2022-07-29T22:17:48.157Z,14.34
2022-07-29T22:20:15.869Z,14.34
2022-07-29T22:22:43.360Z,14.21
2022-07-29T22:25:11.949Z,14.17
2022-07-29T22:27:39.841Z,14.21
2022-07-29T22:30:08.564Z,14.17
2022-07-29T22:32:36.239Z,14.13
2022-07-29T22:35:05.481Z,14.20
2022-07-29T22:37:32.964Z,14.11
2022-07-29T22:40:00.444Z,13.95
2022-07-29T22:42:28.013Z,13.90
2022-07-29T22:44:55.535Z,13.93
2022-07-29T22:47:45.833Z,13.92
2022-07-29T22:50:11.918Z,13.88
2022-07-29T22:52:39.370Z,13.73
2022-07-29T22:55:07.711Z,13.67
2022-07-29T22:57:35.153Z,13.63
2022-07-29T23:00:02.720Z,13.63
2022-07-29T23:02:30.238Z,13.66
2022-07-29T23:04:58.061Z,13.65
2022-07-29T23:07:27.025Z,13.56
2022-07-29T23:09:54.454Z,13.63
2022-07-29T23:12:22.098Z,13.59
2022-07-29T23:14:49.513Z,13.44
2022-07-29T23:17:17.006Z,13.36
2022-07-29T23:19:44.482Z,13.25
2022-07-29T23:22:12.160Z,13.04
2022-07-29T23:24:41.126Z,12.93
2022-07-29T23:27:08.618Z,12.95
2022-07-29T23:29:36.902Z,12.96
2022-07-29T23:32:04.843Z,12.91
2022-07-29T23:34:32.306Z,12.89
2022-07-29T23:36:59.939Z,12.90
2022-07-29T23:39:27.554Z,12.93
2022-07-29T23:41:56.973Z,12.88
2022-07-29T23:44:24.476Z,12.95
2022-07-29T23:46:51.943Z,12.93
2022-07-29T23:49:19.446Z,12.91
2022-07-29T23:51:46.913Z,12.70
2022-07-29T23:54:14.435Z,12.63
2022-07-29T23:56:41.907Z,12.58
2022-07-29T23:59:10.676Z,12.39
